»·PEaware :: DAL1613 KLAS-KSFO

DAL1613 :: KLAS-KSFO

FLIGHT INFORMATION

Flight Status: Arrived
Operator:
Delta Air Lines
More flights by this operator :: More flights under this callsign
Pilot: Clay B. (17061)
Aircraft: AIRBUS A320
(A320)
More flights by this aircraft type
Origin: KLAS McCarran Intl
United States
Destination: KSFO San Francisco Intl
United States
More flights between these airports :: More routes between these airports
Route: SHEAD1 KENNO RUSME DYAMD3
File this flight plan on PilotEdge
Remarks: PBN / A1B1C1D1O1S1 DOF / 171230 REG / N320SB EET / KZOA0024 OPR / DAL PER / C RMK / TCAS SIMBRIEF
Altitude:
(Current/Filed)
38,000ft
Speed:
(Current/Filed)
436kts
Departed: 30-Dec-17 02:22 PM
Arrived: 30-Dec-17 03:29 PM
Distance/Time
Traveled:
359nm/1:07
Distance/Time
To Go:
Arrived

Flight Plot

Page will automatically refresh every two minutes.

Flight plan parsing failed; only flown route is shown


Map Options




Map Legend


Flown Route
Filed Route
Departure Airport
Arrival Airport
Navaid (VOR, NDB)
Fix

Horizontal Profiles

Position Reports

Time Latitude Longitude Heading Altitude Ground
Speed
30-Dec-17 13:30 36.080833 -115.140137 129 2074ft 0kts
30-Dec-17 13:31 36.080833 -115.140137 129 2074ft 0kts
30-Dec-17 13:32 36.080833 -115.140137 129 2074ft 0kts
30-Dec-17 13:33 36.080833 -115.140137 129 2074ft 0kts
30-Dec-17 13:34 36.080833 -115.140137 129 2074ft 0kts
30-Dec-17 13:35 36.080833 -115.140137 129 2074ft 0kts
30-Dec-17 13:36 36.080833 -115.140137 129 2074ft 0kts
30-Dec-17 13:37 36.080833 -115.140137 129 2074ft 0kts
30-Dec-17 13:38 36.080833 -115.140137 129 2074ft 0kts
30-Dec-17 13:39 36.080833 -115.140137 129 2074ft 0kts
30-Dec-17 13:40 36.080833 -115.140137 129 2074ft 0kts
30-Dec-17 13:41 36.080833 -115.140137 0 2074ft 0kts
30-Dec-17 13:42 36.080833 -115.140137 129 2074ft 0kts
30-Dec-17 13:43 36.080833 -115.140137 129 2074ft 0kts
30-Dec-17 13:51 36.080829 -115.140137 129 2074ft 0kts
30-Dec-17 13:52 36.080829 -115.140137 129 2074ft 0kts
30-Dec-17 13:53 36.080829 -115.140137 129 2074ft 0kts
30-Dec-17 13:54 36.080829 -115.140137 129 2074ft 0kts
30-Dec-17 13:55 36.080829 -115.140137 129 2074ft 0kts
30-Dec-17 13:56 36.080829 -115.140137 129 2074ft 0kts
30-Dec-17 13:57 36.080829 -115.140137 129 2074ft 0kts
30-Dec-17 13:59 36.080829 -115.140137 129 2074ft 0kts
30-Dec-17 14:00 36.080829 -115.140137 129 2074ft 0kts
30-Dec-17 14:01 36.080860 -115.140182 129 2077ft 0kts
30-Dec-17 14:02 36.080860 -115.140182 129 2077ft 0kts
30-Dec-17 14:03 36.080860 -115.140182 129 2077ft 0kts
30-Dec-17 14:04 36.080860 -115.140182 129 2077ft 0kts
30-Dec-17 14:05 36.080860 -115.140182 129 2077ft 0kts
30-Dec-17 14:06 36.080860 -115.140182 129 2077ft 0kts
30-Dec-17 14:07 36.080860 -115.140182 129 2077ft 0kts
30-Dec-17 14:08 36.080860 -115.140182 129 2077ft 0kts
30-Dec-17 14:09 36.080860 -115.140182 129 2077ft 0kts
30-Dec-17 14:10 36.080860 -115.140182 129 2077ft 0kts
30-Dec-17 14:11 36.080860 -115.140182 129 2077ft 0kts
30-Dec-17 14:12 36.080860 -115.140182 129 2077ft 0kts
30-Dec-17 14:13 36.080860 -115.140182 129 2077ft 0kts
30-Dec-17 14:14 36.080860 -115.140182 129 2077ft 0kts
30-Dec-17 14:15 36.080860 -115.140182 129 2077ft 0kts
30-Dec-17 14:16 36.080860 -115.140182 129 2077ft 0kts
30-Dec-17 14:17 36.080860 -115.140183 129 2077ft 0kts
30-Dec-17 14:18 36.081143 -115.140536 130 2077ft 2kts
30-Dec-17 14:19 36.081528 -115.141106 129 2078ft 2kts
30-Dec-17 14:20 36.081907 -115.141601 177 2078ft 0kts
30-Dec-17 14:21 36.081985 -115.141597 180 2078ft 0kts
30-Dec-17 14:22 36.081985 -115.141597 180 2078ft 0kts
30-Dec-17 14:23 36.080504 -115.141582 179 2083ft 10kts
30-Dec-17 14:24 36.078100 -115.141635 182 2085ft 2kts
30-Dec-17 14:25 36.077572 -115.137097 92 2074ft 27kts
30-Dec-17 14:26 36.077553 -115.127541 90 2049ft 28kts
30-Dec-17 14:27 36.076473 -115.126456 261 2049ft 4kts
30-Dec-17 14:28 36.073678 -115.163680 236 3164ft 162kts
30-Dec-17 14:29 36.030095 -115.189991 215 4895ft 202kts
30-Dec-17 14:30 35.991199 -115.256802 243 6549ft 264kts
30-Dec-17 14:31 35.948813 -115.329574 226 9005ft 269kts
30-Dec-17 14:32 35.895837 -115.393732 236 9103ft 274kts
30-Dec-17 14:33 35.887856 -115.489727 270 10601ft 333kts
30-Dec-17 14:34 35.889660 -115.604917 270 13025ft 342kts
30-Dec-17 14:35 35.891646 -115.717114 270 15424ft 350kts
30-Dec-17 14:36 35.893655 -115.838658 270 17806ft 362kts
30-Dec-17 14:37 35.902460 -115.963428 291 19999ft 376kts
30-Dec-17 14:38 35.973400 -116.061070 314 22059ft 394kts
30-Dec-17 14:39 36.054529 -116.153843 313 23963ft 404kts
30-Dec-17 14:40 36.135327 -116.247090 313 25659ft 413kts
30-Dec-17 14:41 36.219292 -116.344341 313 27248ft 422kts
30-Dec-17 14:42 36.305808 -116.444902 313 28723ft 430kts
30-Dec-17 14:43 36.393426 -116.547055 313 30066ft 438kts
30-Dec-17 14:44 36.481897 -116.650539 313 31294ft 445kts
30-Dec-17 14:45 36.572209 -116.752767 321 32914ft 447kts
30-Dec-17 14:46 36.677048 -116.833525 324 34624ft 444kts
30-Dec-17 14:47 36.781799 -116.913405 324 36090ft 441kts
30-Dec-17 14:48 36.885896 -116.992910 324 36183ft 441kts
30-Dec-17 14:49 36.990446 -117.072987 323 36228ft 440kts
30-Dec-17 14:50 37.093785 -117.152378 322 36226ft 435kts
30-Dec-17 14:51 37.195269 -117.230638 322 36226ft 434kts
30-Dec-17 14:52 37.297500 -117.310632 318 36225ft 430kts
30-Dec-17 14:53 37.388263 -117.406538 314 36216ft 427kts
30-Dec-17 14:54 37.472984 -117.509177 298 36206ft 417kts
30-Dec-17 14:55 37.502797 -117.646584 276 36184ft 409kts
30-Dec-17 14:56 37.515561 -117.784146 275 36184ft 409kts
30-Dec-17 14:57 37.527344 -117.926796 274 36174ft 409kts
30-Dec-17 14:58 37.538662 -118.068815 274 36173ft 409kts
30-Dec-17 14:59 37.549835 -118.211749 274 36171ft 409kts
30-Dec-17 15:00 37.560795 -118.354277 274 36173ft 409kts
30-Dec-17 15:01 37.571556 -118.496495 274 36211ft 409kts
30-Dec-17 15:02 37.581959 -118.636206 274 36241ft 409kts
30-Dec-17 15:03 37.591311 -118.763795 274 36257ft 409kts
30-Dec-17 15:04 37.601622 -118.906652 274 36257ft 412kts
30-Dec-17 15:05 37.611628 -119.047682 273 36256ft 416kts
30-Dec-17 15:06 37.621555 -119.190138 273 36254ft 416kts
30-Dec-17 15:07 37.631427 -119.334335 273 36253ft 416kts
30-Dec-17 15:08 37.641137 -119.478680 273 36251ft 416kts
30-Dec-17 15:09 37.650635 -119.622527 273 36215ft 416kts
30-Dec-17 15:10 37.659271 -119.755462 273 35829ft 385kts
30-Dec-17 15:11 37.667716 -119.888304 273 33952ft 387kts
30-Dec-17 15:12 37.676168 -120.023461 273 32042ft 394kts
30-Dec-17 15:13 37.684667 -120.161916 273 30167ft 401kts
30-Dec-17 15:14 37.693088 -120.301740 273 28329ft 395kts
30-Dec-17 15:15 37.694428 -120.438162 262 26519ft 387kts
30-Dec-17 15:16 37.679759 -120.570212 261 24489ft 375kts
30-Dec-17 15:17 37.664928 -120.697087 261 22585ft 367kts
30-Dec-17 15:18 37.651200 -120.812291 260 20904ft 355kts
30-Dec-17 15:19 37.637326 -120.927242 260 19302ft 347kts
30-Dec-17 15:20 37.622165 -121.044144 259 17756ft 342kts
30-Dec-17 15:21 37.606771 -121.159123 259 16219ft 336kts
30-Dec-17 15:22 37.591512 -121.273139 260 14730ft 331kts
30-Dec-17 15:23 37.578513 -121.386691 260 13325ft 326kts
30-Dec-17 15:24 37.565543 -121.498655 260 11940ft 321kts
30-Dec-17 15:25 37.552933 -121.606623 261 10887ft 286kts
30-Dec-17 15:26 37.532678 -121.700555 253 9920ft 273kts
30-Dec-17 15:27 37.511406 -121.789639 253 8955ft 264kts
30-Dec-17 15:28 37.492310 -121.871172 263 8028ft 253kts
30-Dec-17 15:29 37.495618 -121.956240 274 6258ft 250kts
30-Dec-17 15:30 37.500387 -122.040883 275 4949ft 243kts
30-Dec-17 15:31 37.509274 -122.108365 298 4109ft 236kts
30-Dec-17 15:32 37.541637 -122.186225 298 3033ft 208kts
30-Dec-17 15:33 37.553405 -122.201992 358 103ft 288kts
30-Dec-17 15:34 37.594006 -122.310676 298 452ft 198kts
30-Dec-17 15:35 37.612604 -122.384674 6 35ft 0kts

Navigation Log

Ident Type
Flight plan parsing failed, navigation log unavailable